Time;durP1;ratioP1;P1;durP2;ratioP2;P2;SDS_P1;SDS_P2;PMS_P1;PMS_P2;Temp;Humidity;BMP_temperature;BMP_pressure;BME280_temperature;BME280_humidity;BME280_pressure;Samples;Min_cycle;Max_cycle;Signal;HPM_P1;HPM_P2
2021/11/25 00:01:21;;;;;;;41.63;24.20;;;6.10;99.90;;;;;;5067099;28;20040;-44
2021/11/25 00:03:47;;;;;;;43.88;22.80;;;6.00;99.90;;;;;;5066091;28;20103;-42
2021/11/25 00:06:12;;;;;;;43.45;23.67;;;6.00;99.90;;;;;;5066655;28;20036;-43
2021/11/25 00:08:38;;;;;;;43.75;23.90;;;5.90;99.90;;;;;;5066583;28;20399;-42
2021/11/25 00:11:04;;;;;;;44.00;24.55;;;5.90;99.90;;;;;;5065346;28;20075;-43
2021/11/25 00:13:30;;;;;;;45.17;24.70;;;5.80;99.90;;;;;;5066824;28;20024;-44
2021/11/25 00:15:55;;;;;;;43.67;24.48;;;5.90;99.90;;;;;;5066300;28;20404;-43
2021/11/25 00:18:21;;;;;;;45.20;23.77;;;5.90;99.90;;;;;;5065973;28;20091;-43
2021/11/25 00:20:49;;;;;;;42.97;24.02;;;5.90;99.90;;;;;;5066743;28;20116;-43
2021/11/25 00:23:15;;;;;;;48.17;24.67;;;5.90;99.90;;;;;;5066425;28;20035;-42
2021/11/25 00:25:41;;;;;;;41.13;24.85;;;5.90;99.90;;;;;;5065603;28;20357;-41
2021/11/25 00:28:07;;;;;;;47.53;24.83;;;5.90;99.90;;;;;;5066505;28;20021;-43
2021/11/25 00:30:39;;;;;;;45.72;24.23;;;5.90;99.90;;;;;;5066609;28;20575;-43
2021/11/25 00:33:04;;;;;;;44.07;23.03;;;5.90;99.90;;;;;;5065671;28;20025;-43
2021/11/25 00:35:30;;;;;;;44.95;25.13;;;5.90;99.90;;;;;;5066397;28;20534;-44
2021/11/25 00:37:56;;;;;;;43.67;23.80;;;6.00;99.90;;;;;;5065968;28;20727;-42
2021/11/25 00:40:22;;;;;;;41.70;24.05;;;5.90;99.90;;;;;;5066273;28;20037;-42
2021/11/25 00:42:48;;;;;;;44.58;24.77;;;5.90;99.90;;;;;;5066495;28;20024;-42
2021/11/25 00:45:15;;;;;;;46.53;24.52;;;6.00;99.90;;;;;;5066939;28;20070;-42
2021/11/25 00:47:41;;;;;;;42.38;24.42;;;6.00;99.90;;;;;;5064902;28;20048;-43
2021/11/25 00:50:09;;;;;;;44.65;24.50;;;6.00;99.90;;;;;;5066103;28;20059;-42
2021/11/25 00:52:35;;;;;;;43.25;23.55;;;6.00;99.90;;;;;;5067228;28;20480;-43
2021/11/25 00:55:00;;;;;;;41.17;24.10;;;6.00;99.90;;;;;;5068905;28;20056;-44
2021/11/25 00:57:27;;;;;;;42.03;24.08;;;5.90;99.90;;;;;;5068783;28;20480;-42
2021/11/25 00:59:52;;;;;;;44.45;24.30;;;5.90;99.90;;;;;;5069946;28;20174;-43
2021/11/25 01:02:21;;;;;;;43.30;24.25;;;5.90;99.90;;;;;;5069216;28;20470;-42
2021/11/25 01:04:46;;;;;;;45.30;23.92;;;5.80;99.90;;;;;;5069491;28;20388;-43
2021/11/25 01:07:12;;;;;;;44.45;24.65;;;5.90;99.90;;;;;;5069094;28;20016;-43
2021/11/25 01:09:38;;;;;;;39.60;24.08;;;5.80;99.90;;;;;;5069466;28;20091;-43
2021/11/25 01:12:04;;;;;;;43.47;23.42;;;5.80;99.90;;;;;;5069247;28;20021;-42
2021/11/25 01:14:32;;;;;;;38.65;22.42;;;5.80;99.90;;;;;;5068886;28;20034;-42
2021/11/25 01:16:57;;;;;;;37.80;23.27;;;5.80;99.90;;;;;;5068924;28;20506;-43
2021/11/25 01:19:23;;;;;;;41.38;23.58;;;5.80;99.90;;;;;;5069318;28;20033;-43
2021/11/25 01:21:49;;;;;;;43.45;24.30;;;5.70;99.90;;;;;;5068798;28;20539;-43
2021/11/25 01:24:16;;;;;;;45.25;23.60;;;5.70;99.90;;;;;;5069144;28;20052;-42
2021/11/25 01:26:42;;;;;;;40.92;22.73;;;5.70;99.90;;;;;;5069632;28;20495;-42
2021/11/25 01:29:08;;;;;;;38.97;22.20;;;5.70;99.90;;;;;;5068362;28;20021;-43
2021/11/25 01:31:33;;;;;;;38.70;22.80;;;5.70;99.90;;;;;;5069553;28;20372;-42
2021/11/25 01:33:59;;;;;;;40.60;22.77;;;5.70;99.90;;;;;;5069465;28;20059;-42
2021/11/25 01:36:24;;;;;;;41.45;22.88;;;5.70;99.90;;;;;;5068071;28;20111;-42
2021/11/25 01:38:50;;;;;;;47.10;24.42;;;5.80;99.90;;;;;;5069374;28;20028;-43
2021/11/25 01:41:17;;;;;;;42.20;22.85;;;5.80;99.90;;;;;;5069108;28;20066;-42
2021/11/25 01:43:43;;;;;;;39.53;22.25;;;5.80;99.90;;;;;;5068408;28;20032;-43
2021/11/25 01:46:15;;;;;;;42.88;22.33;;;5.80;99.90;;;;;;5069187;28;20035;-42
2021/11/25 01:48:42;;;;;;;44.63;23.92;;;5.80;99.90;;;;;;5068361;28;20073;-43
2021/11/25 01:51:07;;;;;;;45.40;22.98;;;5.80;99.90;;;;;;5068534;28;20023;-44
2021/11/25 01:53:34;;;;;;;42.45;22.45;;;5.90;99.90;;;;;;5068760;28;20107;-43
2021/11/25 01:56:07;;;;;;;44.08;22.48;;;5.90;99.90;;;;;;5068671;28;20063;-42
2021/11/25 01:58:32;;;;;;;;;;;5.90;99.90;;;;;;5068628;28;20048;-43
2021/11/25 02:01:00;;;;;;;45.45;21.48;;;5.90;99.90;;;;;;5068433;28;20351;-42
2021/11/25 02:03:27;;;;;;;40.53;21.10;;;5.90;99.90;;;;;;5067690;28;20033;-43
2021/11/25 02:05:54;;;;;;;45.58;22.60;;;5.90;99.90;;;;;;5066861;28;20020;-43
2021/11/25 02:08:20;;;;;;;38.83;21.55;;;5.90;99.90;;;;;;5068863;28;20791;-42
2021/11/25 02:10:49;;;;;;;44.90;22.67;;;5.90;99.90;;;;;;5067710;28;20039;-43
2021/11/25 02:13:14;;;;;;;51.00;24.10;;;5.90;99.90;;;;;;5068952;28;20024;-42
2021/11/25 02:15:40;;;;;;;41.95;21.42;;;5.90;99.90;;;;;;5068091;28;20116;-44
2021/11/25 02:18:10;;;;;;;47.47;23.02;;;5.90;99.90;;;;;;5067127;28;20086;-44
2021/11/25 02:20:37;;;;;;;48.03;23.55;;;5.90;99.90;;;;;;5068362;28;20076;-43
2021/11/25 02:23:03;;;;;;;44.15;22.65;;;6.00;99.90;;;;;;5068137;28;20659;-43
2021/11/25 02:25:29;;;;;;;43.22;22.67;;;5.90;99.90;;;;;;5067153;28;20127;-43
2021/11/25 02:27:55;;;;;;;47.58;23.05;;;6.00;99.90;;;;;;5068619;28;20112;-43
2021/11/25 02:30:21;;;;;;;40.53;20.98;;;5.90;99.90;;;;;;5068032;28;20039;-44
2021/11/25 02:32:47;;;;;;;43.45;21.65;;;5.90;99.90;;;;;;5067693;28;20028;-42
2021/11/25 02:35:16;;;;;;;41.17;23.02;;;5.90;99.90;;;;;;5067968;28;20028;-42
2021/11/25 02:37:42;;;;;;;42.75;22.75;;;5.90;99.90;;;;;;5067854;28;20038;-43
2021/11/25 02:40:21;;;;;;;43.30;21.75;;;5.90;99.90;;;;;;5067190;28;20043;-43
2021/11/25 02:42:54;;;;;;;41.67;21.15;;;5.90;99.90;;;;;;5057550;28;20025;-43
2021/11/25 02:45:21;;;;;;;42.47;21.73;;;5.80;99.90;;;;;;5068245;28;20812;-43
2021/11/25 02:47:47;;;;;;;41.05;21.42;;;5.80;99.90;;;;;;5067054;28;20115;-42
2021/11/25 02:50:16;;;;;;;41.78;21.70;;;5.80;99.90;;;;;;5067552;28;20853;-42
2021/11/25 02:52:42;;;;;;;38.90;20.48;;;5.80;99.90;;;;;;5067047;28;20343;-44
2021/11/25 02:55:10;;;;;;;39.38;19.88;;;5.80;99.90;;;;;;5067463;28;20424;-44
2021/11/25 02:57:37;;;;;;;41.03;21.50;;;5.80;99.90;;;;;;5067942;28;20020;-43
2021/11/25 03:00:26;;;;;;;40.55;22.20;;;5.80;99.90;;;;;;5066650;28;20488;-42
2021/11/25 03:02:57;;;;;;;40.50;20.15;;;5.80;99.90;;;;;;5065943;28;20039;-42
2021/11/25 03:05:23;;;;;;;41.67;21.17;;;5.80;99.90;;;;;;5067724;28;20012;-43
2021/11/25 03:07:48;;;;;;;40.88;21.85;;;5.80;99.90;;;;;;5067052;28;20078;-43
2021/11/25 03:10:14;;;;;;;38.90;20.98;;;5.80;99.90;;;;;;5067722;28;20024;-42
2021/11/25 03:12:43;;;;;;;39.38;21.90;;;5.80;99.90;;;;;;5067043;28;20035;-46
2021/11/25 03:15:08;;;;;;;42.70;21.58;;;5.80;99.90;;;;;;5066940;28;20097;-44
2021/11/25 03:17:37;;;;;;;40.90;21.55;;;5.80;99.90;;;;;;5066696;28;20056;-43
2021/11/25 03:20:07;;;;;;;38.40;20.95;;;5.80;99.90;;;;;;5067108;28;20460;-44
2021/11/25 03:22:33;;;;;;;37.47;20.60;;;5.90;99.90;;;;;;5066414;28;20035;-42
2021/11/25 03:24:59;;;;;;;40.38;22.83;;;5.90;99.90;;;;;;5066840;28;20100;-42
2021/11/25 03:27:27;;;;;;;41.33;22.35;;;5.90;99.90;;;;;;5067040;28;20052;-43
2021/11/25 03:29:52;;;;;;;40.30;21.77;;;5.90;99.90;;;;;;5067037;28;20070;-44
2021/11/25 03:32:18;;;;;;;39.60;22.10;;;5.90;99.90;;;;;;5067407;28;20060;-44
2021/11/25 03:34:44;;;;;;;41.15;22.88;;;5.90;99.90;;;;;;5066176;28;20028;-42
2021/11/25 03:37:09;;;;;;;39.53;21.50;;;5.90;99.90;;;;;;5067151;28;20031;-44
2021/11/25 03:39:35;;;;;;;39.28;21.48;;;5.90;99.90;;;;;;5066671;28;20044;-43
2021/11/25 03:42:00;;;;;;;36.05;21.13;;;5.90;99.90;;;;;;5066370;28;20452;-42
2021/11/25 03:44:26;;;;;;;43.90;22.52;;;5.90;99.90;;;;;;5067224;28;20039;-43
2021/11/25 03:46:53;;;;;;;38.47;21.38;;;5.90;99.90;;;;;;5066817;28;20476;-43
2021/11/25 03:49:18;;;;;;;37.50;21.25;;;5.90;99.90;;;;;;5066233;28;20115;-43
2021/11/25 03:51:44;;;;;;;38.60;21.50;;;5.90;99.90;;;;;;5067030;28;20100;-42
2021/11/25 03:54:10;;;;;;;36.90;21.90;;;5.90;99.90;;;;;;5066806;28;20032;-42
2021/11/25 03:56:35;;;;;;;42.40;20.98;;;5.90;99.90;;;;;;5066479;28;20078;-43
2021/11/25 03:59:01;;;;;;;39.45;22.25;;;6.00;99.90;;;;;;5066409;28;20032;-42
2021/11/25 04:01:27;;;;;;;40.50;23.05;;;5.90;99.90;;;;;;5066958;28;20025;-46
2021/11/25 04:03:52;;;;;;;48.15;27.00;;;5.90;99.90;;;;;;5065902;28;20098;-43
2021/11/25 04:06:18;;;;;;;46.33;25.92;;;5.80;99.90;;;;;;5066933;28;20306;-42
2021/11/25 04:08:44;;;;;;;47.95;25.55;;;5.70;99.90;;;;;;5066704;28;20016;-43
2021/11/25 04:11:10;;;;;;;44.50;24.13;;;5.60;99.90;;;;;;5065937;28;20029;-42
2021/11/25 04:13:36;;;;;;;39.38;22.73;;;5.60;99.90;;;;;;5066573;28;20077;-42
2021/11/25 04:16:02;;;;;;;38.80;23.00;;;5.60;99.90;;;;;;5066746;28;20025;-43
2021/11/25 04:18:27;;;;;;;38.38;22.48;;;5.60;99.90;;;;;;5065510;28;20044;-43
2021/11/25 04:20:53;;;;;;;36.22;22.08;;;5.70;99.90;;;;;;5066261;28;20060;-43
2021/11/25 04:23:18;;;;;;;33.33;21.63;;;5.70;99.90;;;;;;5066869;28;20016;-43
2021/11/25 04:25:44;;;;;;;35.85;21.13;;;5.70;99.90;;;;;;5065766;28;20552;-43
2021/11/25 04:28:10;;;;;;;31.67;19.90;;;5.80;99.90;;;;;;5068840;28;20021;-43
2021/11/25 04:30:51;;;;;;;34.95;20.30;;;5.80;99.90;;;;;;5070640;28;20082;-44
2021/11/25 04:36:02;;;;;;;35.00;21.35;;;5.80;99.90;;;;;;5070000;28;20031;-42
2021/11/25 04:38:30;;;;;;;36.15;22.33;;;5.80;99.90;;;;;;5070137;28;20116;-42
2021/11/25 04:40:58;;;;;;;33.67;20.15;;;5.80;99.90;;;;;;5070062;28;20426;-44
2021/11/25 04:43:25;;;;;;;29.42;20.10;;;5.90;99.90;;;;;;5070563;28;20033;-43
2021/11/25 04:45:51;;;;;;;35.50;21.58;;;5.80;99.90;;;;;;5069880;28;20037;-43
2021/11/25 04:48:19;;;;;;;34.08;21.95;;;5.80;99.90;;;;;;5070812;28;20025;-43
2021/11/25 04:50:46;;;;;;;33.72;20.42;;;5.90;99.90;;;;;;5069662;28;20032;-42
2021/11/25 04:53:13;;;;;;;33.90;20.77;;;5.80;99.90;;;;;;5069581;28;20032;-42
2021/11/25 04:55:40;;;;;;;36.35;20.95;;;5.80;99.90;;;;;;5069818;28;20054;-43
2021/11/25 04:58:06;;;;;;;37.10;22.55;;;5.80;99.90;;;;;;5069995;28;20108;-44
2021/11/25 05:00:32;;;;;;;37.88;22.25;;;5.70;99.90;;;;;;5069300;28;20131;-43
2021/11/25 05:03:00;;;;;;;30.92;20.15;;;5.70;99.90;;;;;;5069393;28;20024;-43
2021/11/25 05:05:26;;;;;;;29.02;18.88;;;5.70;99.90;;;;;;5069756;28;20028;-44
2021/11/25 05:07:54;;;;;;;33.15;21.73;;;5.70;99.90;;;;;;5069100;28;20871;-43
2021/11/25 05:10:20;;;;;;;32.05;21.70;;;5.70;99.90;;;;;;5070253;28;20021;-43
2021/11/25 05:12:45;;;;;;;30.52;20.80;;;5.80;99.90;;;;;;5069227;28;20027;-42
2021/11/25 05:15:13;;;;;;;33.50;21.83;;;5.80;99.90;;;;;;5068470;28;20024;-42
2021/11/25 05:17:39;;;;;;;33.22;20.20;;;5.80;99.90;;;;;;5069469;28;20106;-44
2021/11/25 05:20:08;;;;;;;37.50;22.27;;;5.80;99.90;;;;;;5069457;28;20040;-43
2021/11/25 05:22:33;;;;;;;34.28;22.40;;;5.80;99.90;;;;;;5069145;28;20040;-44
2021/11/25 05:24:59;;;;;;;33.05;22.25;;;5.90;99.90;;;;;;5069525;28;20032;-44
2021/11/25 05:27:27;;;;;;;32.63;21.25;;;5.90;99.90;;;;;;5068526;28;20024;-42
2021/11/25 05:29:53;;;;;;;33.17;22.75;;;5.90;99.90;;;;;;5069254;28;20017;-43
2021/11/25 05:32:18;;;;;;;34.63;22.13;;;5.90;99.90;;;;;;5069687;28;20115;-43
2021/11/25 05:34:48;;;;;;;36.00;22.88;;;5.90;99.90;;;;;;5069070;28;20019;-44
2021/11/25 05:37:16;;;;;;;34.30;23.20;;;5.90;99.90;;;;;;5069159;28;20123;-43
2021/11/25 05:39:42;;;;;;;35.67;24.27;;;5.90;99.90;;;;;;5068494;28;20098;-43
2021/11/25 05:42:08;;;;;;;38.40;25.60;;;5.80;99.90;;;;;;5068533;28;20461;-43
2021/11/25 05:44:34;;;;;;;36.97;24.40;;;5.80;99.90;;;;;;5069394;28;20059;-44
2021/11/25 05:47:00;;;;;;;36.10;24.85;;;5.80;99.90;;;;;;5069318;28;20526;-43
2021/11/25 05:49:26;;;;;;;34.15;23.83;;;5.80;99.90;;;;;;5069157;28;20051;-43
2021/11/25 05:51:51;;;;;;;39.22;25.58;;;5.80;99.90;;;;;;5068835;28;20048;-41
2021/11/25 05:54:17;;;;;;;31.52;22.58;;;5.80;99.90;;;;;;5070017;28;20028;-44
2021/11/25 05:56:42;;;;;;;31.98;22.52;;;5.80;99.90;;;;;;5069183;28;20056;-44
2021/11/25 05:59:08;;;;;;;35.22;23.48;;;5.70;99.90;;;;;;5068784;28;20143;-43
2021/11/25 06:01:34;;;;;;;32.53;21.90;;;5.70;99.90;;;;;;5069237;28;20424;-44
2021/11/25 06:03:59;;;;;;;33.72;23.33;;;5.70;99.90;;;;;;5067939;28;20027;-42
2021/11/25 06:06:25;;;;;;;32.90;22.90;;;5.70;99.90;;;;;;5069115;28;20054;-43
2021/11/25 06:08:51;;;;;;;28.73;20.35;;;5.70;99.90;;;;;;5068578;28;20029;-43
2021/11/25 06:11:17;;;;;;;32.72;23.00;;;5.70;99.90;;;;;;5068936;28;20078;-43
2021/11/25 06:13:43;;;;;;;29.73;20.95;;;5.70;99.90;;;;;;5068329;28;20258;-43
2021/11/25 06:16:09;;;;;;;34.95;23.08;;;5.60;99.90;;;;;;5068783;28;20036;-43
2021/11/25 06:18:35;;;;;;;36.90;25.13;;;5.60;99.90;;;;;;5067557;28;20887;-44
2021/11/25 06:21:00;;;;;;;38.63;25.45;;;5.60;99.90;;;;;;5068828;28;20472;-43
2021/11/25 06:23:26;;;;;;;35.75;24.40;;;5.60;99.90;;;;;;5067868;28;20036;-43
2021/11/25 06:25:54;;;;;;;36.70;25.25;;;5.60;99.90;;;;;;5068321;28;20060;-42
2021/11/25 06:28:20;;;;;;;31.35;22.55;;;5.60;99.90;;;;;;5068084;28;20031;-44
2021/11/25 06:30:45;;;;;;;38.63;26.45;;;5.60;99.90;;;;;;5067199;28;20024;-44
2021/11/25 06:33:11;;;;;;;29.55;21.33;;;5.50;99.90;;;;;;5065893;28;20024;-43
2021/11/25 06:35:38;;;;;;;34.05;23.58;;;5.50;99.90;;;;;;5068751;28;20039;-43
2021/11/25 06:38:04;;;;;;;35.03;23.85;;;5.50;99.90;;;;;;5061552;28;20027;-43
2021/11/25 06:40:33;;;;;;;34.85;23.80;;;5.50;99.90;;;;;;5047734;28;20049;-43
2021/11/25 06:43:00;;;;;;;34.65;23.48;;;5.50;99.90;;;;;;5047885;28;20028;-44
2021/11/25 06:45:26;;;;;;;33.55;23.33;;;5.50;99.90;;;;;;5066762;28;20496;-44
2021/11/25 06:47:53;;;;;;;33.72;22.02;;;5.50;99.90;;;;;;5067495;28;20032;-43
2021/11/25 06:50:20;;;;;;;30.10;21.35;;;5.50;99.90;;;;;;5066581;28;20039;-44
2021/11/25 06:52:46;;;;;;;32.75;22.85;;;5.50;99.90;;;;;;5068911;28;20032;-43
2021/11/25 06:55:15;;;;;;;32.88;23.30;;;5.50;99.90;;;;;;5067472;28;20078;-44
2021/11/25 06:57:43;;;;;;;31.38;21.95;;;5.50;99.90;;;;;;5067406;28;20593;-42
2021/11/25 07:00:11;;;;;;;33.72;23.52;;;5.50;99.90;;;;;;5065229;28;20086;-44
2021/11/25 07:02:37;;;;;;;31.20;22.38;;;5.50;99.90;;;;;;5066990;28;20031;-43
2021/11/25 07:05:08;;;;;;;30.38;21.60;;;5.50;99.90;;;;;;5066259;28;20624;-43
2021/11/25 07:07:34;;;;;;;31.77;22.63;;;5.50;99.90;;;;;;5066146;28;20599;-44
2021/11/25 07:10:00;;;;;;;33.25;23.75;;;5.50;99.90;;;;;;5066004;28;20025;-43
2021/11/25 07:12:26;;;;;;;31.10;22.10;;;5.50;99.90;;;;;;5067698;28;20123;-43
2021/11/25 07:14:51;;;;;;;32.58;23.42;;;5.50;99.90;;;;;;5066909;28;20100;-43
2021/11/25 07:17:17;;;;;;;29.88;21.35;;;5.40;99.90;;;;;;5067509;28;20480;-44
2021/11/25 07:19:43;;;;;;;35.88;26.02;;;5.40;99.90;;;;;;5066856;28;20032;-43
2021/11/25 07:22:08;;;;;;;33.92;23.85;;;5.40;99.90;;;;;;5066763;28;20024;-44
2021/11/25 07:24:34;;;;;;;33.47;23.17;;;5.40;99.90;;;;;;5067532;28;20028;-45
2021/11/25 07:26:59;;;;;;;31.58;22.63;;;5.40;99.90;;;;;;5066545;28;20017;-44
2021/11/25 07:29:25;;;;;;;30.70;21.40;;;5.40;99.90;;;;;;5067079;28;20046;-43
2021/11/25 07:31:51;;;;;;;28.85;21.63;;;5.40;99.90;;;;;;5066020;28;20484;-43
2021/11/25 07:34:17;;;;;;;30.90;21.92;;;5.40;99.90;;;;;;5054681;28;20056;-43
2021/11/25 07:36:45;;;;;;;27.05;19.63;;;5.40;99.90;;;;;;5065726;28;20083;-44
2021/11/25 07:39:11;;;;;;;31.05;22.45;;;5.40;99.90;;;;;;5069329;28;20045;-44
2021/11/25 07:41:38;;;;;;;29.92;22.17;;;5.40;99.90;;;;;;5065978;28;20032;-44
2021/11/25 07:44:07;;;;;;;30.75;21.83;;;5.40;99.90;;;;;;5047217;28;20033;-43
2021/11/25 07:46:36;;;;;;;32.40;21.25;;;5.40;99.90;;;;;;5061417;28;20111;-43
2021/11/25 07:49:03;;;;;;;27.98;20.23;;;5.50;99.90;;;;;;5066217;28;20020;-43
2021/11/25 07:51:30;;;;;;;24.30;17.17;;;5.50;99.90;;;;;;5066874;28;20052;-44
2021/11/25 07:53:56;;;;;;;31.40;20.85;;;5.50;99.90;;;;;;5067104;28;20028;-44
2021/11/25 07:56:22;;;;;;;27.67;20.38;;;5.60;99.90;;;;;;5066409;28;20021;-45
2021/11/25 07:58:48;;;;;;;31.13;22.08;;;5.60;99.90;;;;;;5067106;28;20556;-42
2021/11/25 08:01:13;;;;;;;30.25;21.27;;;5.70;99.90;;;;;;5067165;28;20028;-43
2021/11/25 08:03:39;;;;;;;31.75;22.52;;;5.70;99.90;;;;;;5063975;28;20055;-43
2021/11/25 08:06:04;;;;;;;28.75;20.85;;;5.80;99.90;;;;;;5056887;28;20074;-43
2021/11/25 08:08:30;;;;;;;30.15;20.80;;;5.80;99.90;;;;;;5065756;28;20477;-43
2021/11/25 08:11:02;;;;;;;31.23;20.90;;;5.90;99.90;;;;;;5070300;28;20068;-43
2021/11/25 08:13:30;;;;;;;27.70;20.37;;;5.90;99.90;;;;;;5070791;28;20086;-42
2021/11/25 08:15:56;;;;;;;26.52;19.45;;;5.90;99.90;;;;;;5055152;28;20273;-43
2021/11/25 08:18:25;;;;;;;30.00;20.95;;;5.90;99.90;;;;;;5069163;28;20040;-44
2021/11/25 08:20:50;;;;;;;28.75;20.67;;;5.90;99.90;;;;;;5070640;28;20124;-43
2021/11/25 08:23:16;;;;;;;31.08;21.75;;;5.90;99.90;;;;;;5069530;28;20124;-44
2021/11/25 08:25:42;;;;;;;28.08;21.02;;;6.00;99.90;;;;;;5060245;28;20032;-43
2021/11/25 08:28:08;;;;;;;29.75;21.08;;;6.00;99.90;;;;;;5065447;28;20052;-43
2021/11/25 08:30:34;;;;;;;29.15;20.67;;;6.00;99.90;;;;;;5069725;28;20071;-44
2021/11/25 08:33:00;;;;;;;25.92;19.35;;;6.00;99.90;;;;;;5070080;28;20024;-42
2021/11/25 08:35:26;;;;;;;27.98;19.52;;;6.10;99.90;;;;;;5059153;28;20035;-42
2021/11/25 08:37:53;;;;;;;30.05;22.20;;;6.10;99.90;;;;;;5065084;28;20108;-43
2021/11/25 08:40:18;;;;;;;30.65;21.55;;;6.10;99.90;;;;;;5070507;28;20500;-43
2021/11/25 08:42:46;;;;;;;32.60;23.83;;;6.10;99.90;;;;;;5069970;28;20024;-43
2021/11/25 08:45:13;;;;;;;32.85;23.42;;;6.20;99.90;;;;;;5063284;28;20934;-43
2021/11/25 08:47:39;;;;;;;33.40;23.23;;;6.20;99.90;;;;;;5060499;28;20099;-42
2021/11/25 08:50:07;;;;;;;29.50;22.15;;;6.20;99.90;;;;;;5070099;28;20726;-42
2021/11/25 08:52:32;;;;;;;35.63;24.05;;;6.20;99.90;;;;;;5069231;28;20089;-44
2021/11/25 08:54:58;;;;;;;34.13;23.65;;;6.30;99.90;;;;;;5063745;28;20036;-43
2021/11/25 08:57:27;;;;;;;32.17;23.63;;;6.30;99.90;;;;;;5060307;28;20032;-43
2021/11/25 08:59:52;;;;;;;33.72;24.75;;;6.40;99.90;;;;;;5065140;28;20025;-43
2021/11/25 09:02:19;;;;;;;32.97;24.50;;;6.40;99.90;;;;;;5064000;28;20093;-43
2021/11/25 09:04:44;;;;;;;33.00;23.90;;;6.40;99.90;;;;;;5058955;28;20036;-42
2021/11/25 09:07:10;;;;;;;30.20;23.30;;;6.50;99.90;;;;;;5050629;28;20029;-43
2021/11/25 09:09:36;;;;;;;30.75;22.02;;;6.60;99.90;;;;;;5067991;28;20035;-43
2021/11/25 09:12:02;;;;;;;28.50;21.75;;;6.60;99.90;;;;;;5068695;28;20012;-44
2021/11/25 09:14:27;;;;;;;31.05;21.95;;;6.60;99.90;;;;;;5067040;28;20078;-43
2021/11/25 09:16:53;;;;;;;28.27;21.45;;;6.70;99.90;;;;;;5053358;28;20063;-44
2021/11/25 09:19:18;;;;;;;27.35;19.98;;;6.70;99.90;;;;;;5067933;28;20507;-45
2021/11/25 09:21:45;;;;;;;32.45;23.15;;;6.80;99.90;;;;;;5068114;28;20035;-44
2021/11/25 09:24:10;;;;;;;28.70;21.48;;;6.70;99.90;;;;;;5068497;28;20028;-43
2021/11/25 09:26:37;;;;;;;32.10;24.02;;;6.70;99.90;;;;;;5052902;28;20039;-44
2021/11/25 09:29:03;;;;;;;32.72;24.17;;;6.70;99.90;;;;;;5069025;28;20119;-43
2021/11/25 09:31:30;;;;;;;30.00;22.38;;;6.60;99.90;;;;;;5068737;28;20028;-43
2021/11/25 09:33:57;;;;;;;31.55;23.60;;;6.60;99.90;;;;;;5067699;28;20023;-43
2021/11/25 09:36:24;;;;;;;33.67;25.45;;;6.60;99.90;;;;;;5054100;28;20025;-43
2021/11/25 09:38:50;;;;;;;30.20;23.02;;;6.50;99.90;;;;;;5068479;28;20024;-43
2021/11/25 09:41:15;;;;;;;33.92;24.35;;;6.50;99.90;;;;;;5068089;28;20040;-43
2021/11/25 09:43:42;;;;;;;29.50;22.23;;;6.50;99.90;;;;;;5068642;28;20056;-42
2021/11/25 09:46:08;;;;;;;33.85;24.63;;;6.50;99.90;;;;;;5052520;28;20502;-43
2021/11/25 09:48:34;;;;;;;32.13;24.48;;;6.40;99.90;;;;;;5067730;28;20028;-43
2021/11/25 09:51:00;;;;;;;31.45;24.98;;;6.40;99.90;;;;;;5068359;28;20526;-43
2021/11/25 09:53:27;;;;;;;30.38;22.85;;;6.40;99.90;;;;;;5068306;28;20055;-43
2021/11/25 09:55:55;;;;;;;28.10;21.75;;;6.30;99.90;;;;;;5056176;28;20021;-44
2021/11/25 09:58:27;;;;;;;33.03;24.13;;;6.30;99.90;;;;;;5064453;28;20064;-42
2021/11/25 10:00:56;;;;;;;28.10;21.23;;;6.30;99.90;;;;;;5068290;28;20032;-44
2021/11/25 10:03:22;;;;;;;32.75;23.30;;;6.30;99.90;;;;;;5067753;28;20082;-43
2021/11/25 10:05:50;;;;;;;29.60;22.13;;;6.30;99.90;;;;;;5057246;28;20465;-42
2021/11/25 10:08:27;;;;;;;23.92;19.13;;;6.20;99.90;;;;;;5063383;28;20468;-43
2021/11/25 10:11:16;;;;;;;25.38;19.70;;;6.20;99.90;;;;;;5067401;28;20021;-43
2021/11/25 10:13:54;;;;;;;31.27;23.95;;;6.20;99.90;;;;;;5068277;28;20480;-42
2021/11/25 10:16:30;;;;;;;27.65;19.42;;;6.30;99.90;;;;;;5051831;28;20548;-42
2021/11/25 10:18:57;;;;;;;30.95;22.92;;;6.30;99.90;;;;;;5067618;28;20045;-43
2021/11/25 10:21:26;;;;;;;26.83;19.73;;;6.30;99.90;;;;;;5067743;28;20036;-43
2021/11/25 10:23:54;;;;;;;34.85;24.50;;;6.30;99.90;;;;;;5066999;28;20028;-43
2021/11/25 10:26:22;;;;;;;30.05;22.92;;;6.30;99.90;;;;;;5051436;28;20106;-43
2021/11/25 10:29:01;;;;;;;29.58;22.25;;;6.30;99.90;;;;;;5068188;28;20057;-42
2021/11/25 10:31:38;;;;;;;27.20;20.33;;;6.30;99.90;;;;;;5066796;28;20032;-42
2021/11/25 10:34:15;;;;;;;26.63;20.42;;;6.30;99.90;;;;;;5067494;28;20060;-42
2021/11/25 10:42:15;;;;;;;;;;;6.40;99.90;;;;;;5067905;28;20442;-42
2021/11/25 10:44:50;;;;;;;24.27;17.77;;;6.50;99.90;;;;;;5066367;28;19978;-43
2021/11/25 10:47:25;;;;;;;29.70;19.98;;;6.50;99.90;;;;;;5053424;28;20032;-44
2021/11/25 10:49:52;;;;;;;28.30;19.95;;;6.50;99.90;;;;;;5067286;28;20287;-43
2021/11/25 10:52:22;;;;;;;27.25;19.38;;;6.60;99.90;;;;;;5066431;28;20036;-42
2021/11/25 10:54:54;;;;;;;29.10;20.88;;;6.60;99.90;;;;;;5066231;28;20085;-42
2021/11/25 10:57:34;;;;;;;30.13;20.65;;;6.70;99.90;;;;;;5054504;28;20082;-42
2021/11/25 11:00:09;;;;;;;25.40;19.00;;;6.80;99.90;;;;;;5066913;28;20067;-44
2021/11/25 11:02:35;;;;;;;33.88;23.08;;;6.80;99.90;;;;;;5064028;28;20013;-44
2021/11/25 11:05:11;;;;;;;31.25;21.98;;;6.80;99.90;;;;;;5060087;28;20038;-44
2021/11/25 11:07:44;;;;;;;30.70;23.13;;;6.80;99.90;;;;;;5057172;28;20021;-45
2021/11/25 11:10:22;;;;;;;31.35;21.85;;;6.80;99.90;;;;;;5066879;28;20025;-42
2021/11/25 11:13:00;;;;;;;36.58;23.23;;;6.90;99.90;;;;;;5066014;28;20020;-42
2021/11/25 11:15:29;;;;;;;37.13;24.65;;;6.90;99.90;;;;;;5058196;28;20025;-43
2021/11/25 11:20:40;;;;;;;34.05;21.73;;;7.00;99.90;;;;;;5066024;28;20135;-44
2021/11/25 11:23:06;;;;;;;33.55;23.48;;;7.10;99.90;;;;;;5066425;28;20020;-43
2021/11/25 11:25:34;;;;;;;36.22;25.17;;;7.10;99.90;;;;;;5055841;28;20020;-42
2021/11/25 11:28:05;;;;;;;36.13;25.13;;;7.10;99.90;;;;;;5060752;28;20017;-44
2021/11/25 11:30:31;;;;;;;35.60;24.40;;;7.10;99.90;;;;;;5066818;28;20837;-42
2021/11/25 11:32:57;;;;;;;41.75;26.40;;;7.10;99.90;;;;;;5065509;28;20090;-43
2021/11/25 11:35:23;;;;;;;40.30;26.45;;;7.20;99.90;;;;;;5058608;28;20468;-43
2021/11/25 11:37:56;;;;;;;43.13;29.10;;;7.20;99.90;;;;;;5058166;28;20117;-43
2021/11/25 11:40:24;;;;;;;40.45;26.92;;;7.20;99.90;;;;;;5062527;28;20041;-43
2021/11/25 11:42:51;;;;;;;46.88;30.80;;;7.20;99.90;;;;;;5065289;28;20052;-42
2021/11/25 11:45:18;;;;;;;44.40;28.73;;;7.30;99.90;;;;;;5060104;28;21030;-43
2021/11/25 11:47:45;;;;;;;42.75;28.27;;;7.30;99.90;;;;;;5056381;28;20024;-43
2021/11/25 11:50:11;;;;;;;39.95;26.60;;;7.30;99.90;;;;;;5066061;28;20028;-43
2021/11/25 11:52:58;;;;;;;44.33;28.92;;;7.40;99.90;;;;;;5066706;28;20021;-42
2021/11/25 11:55:37;;;;;;;42.22;26.08;;;7.40;99.90;;;;;;5059684;28;20028;-42
2021/11/25 11:58:33;;;;;;;39.83;25.73;;;7.50;99.90;;;;;;5061133;28;20082;-43
2021/11/25 12:01:03;;;;;;;38.90;24.83;;;7.50;99.90;;;;;;5062624;28;20111;-42
2021/11/25 12:03:35;;;;;;;43.70;27.77;;;7.50;99.90;;;;;;5066156;28;20017;-43
2021/11/25 12:06:01;;;;;;;45.50;28.92;;;7.50;99.90;;;;;;5046597;28;20559;-43
2021/11/25 12:08:34;;;;;;;46.42;29.63;;;7.60;99.90;;;;;;5044879;28;20078;-43
2021/11/25 12:11:06;;;;;;;45.75;29.88;;;7.60;99.90;;;;;;5064966;28;20025;-43
2021/11/25 12:13:40;;;;;;;43.05;27.60;;;7.60;99.90;;;;;;5066689;28;20020;-43
2021/11/25 12:16:20;;;;;;;41.00;25.70;;;7.70;99.90;;;;;;5050118;28;20902;-43
2021/11/25 12:18:54;;;;;;;45.22;28.52;;;7.80;99.90;;;;;;5065544;28;20049;-43
2021/11/25 12:21:40;;;;;;;41.30;27.15;;;7.80;99.90;;;;;;5066088;28;20028;-43
2021/11/25 12:24:14;;;;;;;37.80;25.02;;;7.80;99.90;;;;;;5065776;28;20530;-43
2021/11/25 12:27:59;;;;;;;42.70;28.67;;;7.80;99.90;;;;;;5049984;28;20028;-44
2021/11/25 12:30:13;;;;;;;44.55;27.30;;;7.80;99.90;;;;;;5061664;28;20032;-44
2021/11/25 12:32:45;;;;;;;42.10;26.45;;;7.80;99.90;;;;;;5066019;28;20024;-44
2021/11/25 12:35:25;;;;;;;38.58;24.58;;;7.90;99.90;;;;;;5059719;28;20506;-44
2021/11/25 12:40:25;;;;;;;43.90;26.77;;;7.90;99.90;;;;;;5051707;28;20121;-44
2021/11/25 12:42:59;;;;;;;40.42;26.80;;;7.90;99.90;;;;;;5065616;28;20591;-43
2021/11/25 12:45:37;;;;;;;43.95;28.63;;;7.90;99.90;;;;;;5059371;28;20365;-44
2021/11/25 12:48:09;;;;;;;41.67;26.35;;;7.80;99.90;;;;;;5051055;28;20728;-44
2021/11/25 12:50:58;;;;;;;38.87;25.27;;;7.80;99.90;;;;;;5068475;28;20043;-43
2021/11/25 12:53:29;;;;;;;42.47;25.95;;;7.90;99.90;;;;;;5060939;28;20082;-43
2021/11/25 12:56:16;;;;;;;41.20;25.38;;;8.00;99.90;;;;;;5058712;28;20032;-44